Time;durP1;ratioP1;P1;durP2;ratioP2;P2;SDS_P1;SDS_P2;PMS_P1;PMS_P2;Temp;Humidity;BMP_temperature;BMP_pressure;BME280_temperature;BME280_humidity;BME280_pressure;Samples;Min_cycle;Max_cycle;Signal;HPM_P1;HPM_P2
2022/02/21 00:00:49;;;;;;;9.25;2.20;;;13.70;64.50;;;;;;4863907;29;20061;-79
2022/02/21 00:03:15;;;;;;;12.90;2.10;;;13.60;64.70;;;;;;4863445;29;20540;-76
2022/02/21 00:05:41;;;;;;;7.47;2.00;;;13.70;65.00;;;;;;4862936;29;20367;-77
2022/02/21 00:08:08;;;;;;;8.05;2.25;;;13.70;65.10;;;;;;4864159;29;20061;-77
2022/02/21 00:10:34;;;;;;;11.15;2.03;;;13.70;65.00;;;;;;4864128;29;20049;-75
2022/02/21 00:12:59;;;;;;;11.25;2.60;;;13.60;64.20;;;;;;4856770;29;20463;-76
2022/02/21 00:15:25;;;;;;;13.13;2.75;;;13.60;63.60;;;;;;4863172;29;20057;-80
2022/02/21 00:17:52;;;;;;;8.90;2.15;;;13.50;63.20;;;;;;4864039;29;20375;-78
2022/02/21 00:20:18;;;;;;;13.98;3.50;;;13.40;63.10;;;;;;4862688;29;20126;-75
2022/02/21 00:22:44;;;;;;;9.68;2.58;;;13.40;63.30;;;;;;4863431;29;20045;-75
2022/02/21 00:25:10;;;;;;;10.73;2.75;;;13.30;62.80;;;;;;4848232;29;20413;-79
2022/02/21 00:27:36;;;;;;;13.95;2.90;;;13.30;62.60;;;;;;4863774;29;20080;-76
2022/02/21 00:30:03;;;;;;;13.20;3.10;;;13.30;63.60;;;;;;4847598;29;20053;-77
2022/02/21 00:32:29;;;;;;;13.25;3.15;;;13.20;62.70;;;;;;4862524;29;20084;-77
2022/02/21 00:34:55;;;;;;;10.43;2.83;;;13.20;62.40;;;;;;4863624;29;20126;-75
2022/02/21 00:37:20;;;;;;;15.82;3.00;;;13.10;62.70;;;;;;4863191;29;20045;-77
2022/02/21 00:39:46;;;;;;;13.02;3.00;;;13.10;62.60;;;;;;4864210;29;20112;-77
2022/02/21 00:42:12;;;;;;;14.07;3.65;;;13.10;62.70;;;;;;4862972;29;20045;-78
2022/02/21 00:44:39;;;;;;;14.80;3.42;;;13.00;62.20;;;;;;4862567;29;20068;-76
2022/02/21 00:47:06;;;;;;;16.48;4.18;;;13.00;61.90;;;;;;4832072;29;20113;-78
2022/02/21 00:49:32;;;;;;;11.27;3.22;;;13.00;61.60;;;;;;4863728;29;20068;-77
2022/02/21 00:51:58;;;;;;;12.52;2.95;;;13.00;61.90;;;;;;4863156;29;20049;-75
2022/02/21 00:54:26;;;;;;;8.82;2.35;;;13.00;61.80;;;;;;4862257;29;20122;-78
2022/02/21 00:56:52;;;;;;;15.70;3.05;;;12.90;61.20;;;;;;4862554;29;20053;-76
2022/02/21 00:59:18;;;;;;;12.57;3.03;;;12.90;61.30;;;;;;4862310;29;20122;-76
2022/02/21 01:01:44;;;;;;;11.85;3.28;;;12.80;61.40;;;;;;4862478;29;20049;-77
2022/02/21 01:04:10;;;;;;;12.65;3.50;;;12.80;61.20;;;;;;4862900;29;20140;-76
2022/02/21 01:06:36;;;;;;;17.00;3.90;;;12.80;61.00;;;;;;4863401;29;20101;-76
2022/02/21 01:09:03;;;;;;;11.15;3.38;;;12.70;60.90;;;;;;4863148;29;20054;-76
2022/02/21 01:11:30;;;;;;;13.23;3.28;;;12.70;60.90;;;;;;4847155;29;20117;-76
2022/02/21 01:13:58;;;;;;;12.40;2.95;;;12.70;61.10;;;;;;4861684;29;20463;-76
2022/02/21 01:16:24;;;;;;;14.40;3.67;;;12.70;61.40;;;;;;4862717;29;20064;-76
2022/02/21 01:18:51;;;;;;;15.13;3.65;;;12.80;62.00;;;;;;4862337;29;20065;-76
2022/02/21 01:21:17;;;;;;;15.38;3.42;;;12.80;62.20;;;;;;4863553;29;20409;-75
2022/02/21 01:23:43;;;;;;;10.02;2.80;;;12.90;62.40;;;;;;4862529;29;20218;-77
2022/02/21 01:26:10;;;;;;;15.40;3.58;;;13.00;62.40;;;;;;4861856;29;20042;-75
2022/02/21 01:28:35;;;;;;;16.25;3.38;;;13.00;62.40;;;;;;4862662;29;20121;-77
2022/02/21 01:31:01;;;;;;;12.43;2.75;;;13.00;62.30;;;;;;4863068;29;20152;-75
2022/02/21 01:33:28;;;;;;;13.10;3.38;;;13.10;62.50;;;;;;4861457;29;20068;-76
2022/02/21 01:35:56;;;;;;;9.70;2.85;;;13.00;62.40;;;;;;4861622;29;20132;-75
2022/02/21 01:38:21;;;;;;;12.88;4.13;;;13.10;62.50;;;;;;4846573;29;20448;-76
2022/02/21 01:40:47;;;;;;;13.02;2.70;;;13.10;62.40;;;;;;4862512;29;20194;-76
2022/02/21 01:43:13;;;;;;;12.32;3.35;;;13.10;62.30;;;;;;4862202;29;20041;-79
2022/02/21 01:45:38;;;;;;;16.52;3.25;;;13.10;62.30;;;;;;4862624;29;20057;-75
2022/02/21 01:48:04;;;;;;;14.48;3.08;;;13.10;62.30;;;;;;4861999;29;20069;-78
2022/02/21 01:50:30;;;;;;;12.50;3.60;;;13.10;62.20;;;;;;4862785;29;20371;-76
2022/02/21 01:52:56;;;;;;;12.65;3.67;;;13.10;62.40;;;;;;4861994;29;20050;-75
2022/02/21 01:55:22;;;;;;;14.43;3.53;;;13.10;62.00;;;;;;4863004;29;20094;-76
2022/02/21 01:57:50;;;;;;;14.15;3.15;;;13.10;62.20;;;;;;4862221;29;20057;-77
2022/02/21 02:00:17;;;;;;;13.77;3.22;;;13.10;62.00;;;;;;4862094;29;20054;-76
2022/02/21 02:02:45;;;;;;;12.48;2.88;;;13.10;62.00;;;;;;4862254;29;20053;-76
2022/02/21 02:05:15;;;;;;;14.00;3.65;;;13.10;61.90;;;;;;4854850;29;20060;-76
2022/02/21 02:07:41;;;;;;;11.52;2.90;;;13.00;61.60;;;;;;4846291;29;20061;-77
2022/02/21 02:10:08;;;;;;;13.10;3.30;;;13.00;61.70;;;;;;4861994;29;20041;-75
2022/02/21 02:12:34;;;;;;;10.80;2.60;;;13.00;61.40;;;;;;4855293;29;20131;-77
2022/02/21 02:15:00;;;;;;;12.20;3.00;;;13.10;61.40;;;;;;4858713;29;20054;-77
2022/02/21 02:17:26;;;;;;;14.02;3.17;;;13.10;61.30;;;;;;4848154;29;20126;-77
2022/02/21 02:19:52;;;;;;;11.25;3.47;;;13.10;61.40;;;;;;4847541;29;20061;-76
2022/02/21 02:22:22;;;;;;;11.35;3.28;;;13.10;61.30;;;;;;4851085;29;20078;-78
2022/02/21 02:24:51;;;;;;;15.25;3.70;;;13.10;61.40;;;;;;4865639;29;20049;-74
2022/02/21 02:27:18;;;;;;;12.93;3.40;;;13.10;61.40;;;;;;4865430;29;20464;-77
2022/02/21 02:29:47;;;;;;;10.45;3.60;;;13.10;61.20;;;;;;4865867;29;20053;-76
2022/02/21 02:32:13;;;;;;;13.55;3.88;;;13.00;61.50;;;;;;4864556;29;20165;-77
2022/02/21 02:34:41;;;;;;;16.92;3.50;;;13.10;61.00;;;;;;4864204;29;20054;-76
2022/02/21 02:37:07;;;;;;;15.93;3.30;;;13.00;61.00;;;;;;4865358;29;20132;-75
2022/02/21 02:39:33;;;;;;;13.63;3.85;;;13.00;61.00;;;;;;4864917;29;20046;-77
2022/02/21 02:41:58;;;;;;;11.00;2.97;;;13.00;60.90;;;;;;4865194;29;20050;-77
2022/02/21 02:44:24;;;;;;;12.57;3.13;;;13.00;60.80;;;;;;4865316;29;20064;-76
2022/02/21 02:46:50;;;;;;;12.65;3.10;;;13.00;60.60;;;;;;4865273;29;20132;-76
2022/02/21 02:49:16;;;;;;;15.27;3.25;;;13.00;60.50;;;;;;4864617;29;20157;-76
2022/02/21 02:51:41;;;;;;;13.48;3.33;;;13.00;60.60;;;;;;4865940;29;20049;-76
2022/02/21 02:54:10;;;;;;;15.43;4.03;;;13.00;60.50;;;;;;4864844;29;20053;-75
2022/02/21 02:56:36;;;;;;;12.05;3.47;;;13.00;60.40;;;;;;4864814;29;20424;-78
2022/02/21 02:59:03;;;;;;;10.38;2.95;;;13.00;60.50;;;;;;4865379;29;20456;-75
2022/02/21 03:01:29;;;;;;;10.70;3.13;;;13.00;60.50;;;;;;4865187;29;20341;-75
2022/02/21 03:03:54;;;;;;;13.07;3.17;;;13.00;60.40;;;;;;4864231;29;20053;-77
2022/02/21 03:06:20;;;;;;;14.05;2.90;;;12.90;60.40;;;;;;4864922;29;20061;-75
2022/02/21 03:08:46;;;;;;;11.10;3.22;;;12.90;60.40;;;;;;4865459;29;20079;-75
2022/02/21 03:11:12;;;;;;;11.27;3.42;;;12.90;60.40;;;;;;4864974;29;20061;-77
2022/02/21 03:13:38;;;;;;;13.00;3.60;;;12.90;60.30;;;;;;4863358;29;20064;-78
2022/02/21 03:16:04;;;;;;;11.77;3.58;;;12.90;60.10;;;;;;4864867;29;20130;-75
2022/02/21 03:18:29;;;;;;;13.48;3.88;;;12.80;59.90;;;;;;4864998;29;20053;-75
2022/02/21 03:20:55;;;;;;;9.82;3.25;;;12.80;60.00;;;;;;4865249;29;20080;-77
2022/02/21 03:23:21;;;;;;;11.13;3.17;;;12.80;60.00;;;;;;4864259;29;20041;-76
2022/02/21 03:25:46;;;;;;;8.70;2.83;;;12.80;59.90;;;;;;4864416;29;20045;-75
2022/02/21 03:28:12;;;;;;;13.05;2.85;;;12.80;59.90;;;;;;4864106;29;20049;-76
2022/02/21 03:30:38;;;;;;;12.70;3.15;;;12.80;59.70;;;;;;4864761;29;20443;-75
2022/02/21 03:33:05;;;;;;;8.68;2.47;;;12.80;59.90;;;;;;4864227;29;20852;-75
2022/02/21 03:35:31;;;;;;;11.88;2.83;;;12.80;59.30;;;;;;4863666;29;20057;-76
2022/02/21 03:37:57;;;;;;;14.32;2.95;;;12.80;59.40;;;;;;4848235;29;20064;-76
2022/02/21 03:40:22;;;;;;;11.10;3.28;;;12.80;59.60;;;;;;4864535;29;20065;-77
2022/02/21 03:42:48;;;;;;;10.77;3.35;;;12.80;59.70;;;;;;4863914;29;20050;-75
2022/02/21 03:45:14;;;;;;;9.13;2.85;;;12.80;60.00;;;;;;4864970;29;20385;-76
2022/02/21 03:47:40;;;;;;;11.70;3.70;;;12.80;59.80;;;;;;4864361;29;20056;-76
2022/02/21 03:50:06;;;;;;;10.43;3.08;;;12.70;59.70;;;;;;4863777;29;20061;-75
2022/02/21 03:52:32;;;;;;;12.00;2.63;;;12.70;59.80;;;;;;4862724;29;20089;-77
2022/02/21 03:54:57;;;;;;;11.68;3.15;;;12.80;60.00;;;;;;4863353;29;20100;-75
2022/02/21 03:57:23;;;;;;;16.48;3.22;;;12.80;59.90;;;;;;4864043;29;20055;-77
2022/02/21 03:59:49;;;;;;;10.68;2.83;;;12.80;59.80;;;;;;4864495;29;20090;-77
2022/02/21 04:02:15;;;;;;;10.35;2.45;;;12.70;59.70;;;;;;4847349;29;20471;-75
2022/02/21 04:04:41;;;;;;;11.68;2.72;;;12.70;59.60;;;;;;4863955;29;20057;-77
2022/02/21 04:07:06;;;;;;;11.68;3.22;;;12.70;59.70;;;;;;4864114;29;20061;-77
2022/02/21 04:09:32;;;;;;;10.02;3.05;;;12.70;59.70;;;;;;4864290;29;20126;-76
2022/02/21 04:11:58;;;;;;;10.88;2.60;;;12.70;59.70;;;;;;4863618;29;20092;-77
2022/02/21 04:14:24;;;;;;;14.95;3.15;;;12.70;59.60;;;;;;4863611;29;20049;-77
2022/02/21 04:16:50;;;;;;;12.65;3.28;;;12.70;59.50;;;;;;4863978;29;20126;-76
2022/02/21 04:19:15;;;;;;;11.02;2.58;;;12.70;59.60;;;;;;4863525;29;20412;-75
2022/02/21 04:21:41;;;;;;;13.52;4.05;;;12.70;59.50;;;;;;4863565;29;20137;-76
2022/02/21 04:24:07;;;;;;;15.48;3.50;;;12.70;59.20;;;;;;4863236;29;20452;-78
2022/02/21 04:26:33;;;;;;;15.80;3.17;;;12.70;59.30;;;;;;4847416;29;20405;-77
2022/02/21 04:28:59;;;;;;;11.00;3.17;;;12.70;59.40;;;;;;4863853;29;20120;-75
2022/02/21 04:31:25;;;;;;;10.90;2.90;;;12.70;59.20;;;;;;4862847;29;20056;-78
2022/02/21 04:33:50;;;;;;;16.00;4.07;;;12.70;59.20;;;;;;4863148;29;20054;-76
2022/02/21 04:36:18;;;;;;;11.57;2.80;;;12.70;59.60;;;;;;4862435;29;20515;-77
2022/02/21 04:38:44;;;;;;;11.20;3.15;;;12.70;59.10;;;;;;4862950;29;20056;-75
2022/02/21 04:41:09;;;;;;;12.73;3.25;;;12.60;59.00;;;;;;4863618;29;20057;-77
2022/02/21 04:43:35;;;;;;;14.95;2.97;;;12.60;59.10;;;;;;4862150;29;20060;-77
2022/02/21 04:46:01;;;;;;;12.93;2.78;;;12.60;59.10;;;;;;4847187;29;20067;-77
2022/02/21 04:48:28;;;;;;;11.65;2.80;;;12.60;59.00;;;;;;4863509;29;20105;-74
2022/02/21 04:50:55;;;;;;;11.30;3.30;;;12.60;59.10;;;;;;4863047;29;20061;-76
2022/02/21 04:53:21;;;;;;;13.43;3.00;;;12.60;59.10;;;;;;4862949;29;20424;-75
2022/02/21 04:55:47;;;;;;;10.98;3.08;;;12.60;58.80;;;;;;4863493;29;20375;-75
2022/02/21 04:58:13;;;;;;;10.15;2.53;;;12.60;58.90;;;;;;4862410;29;20046;-75
2022/02/21 05:00:39;;;;;;;10.38;3.10;;;12.50;59.00;;;;;;4862108;29;20421;-76
2022/02/21 05:03:04;;;;;;;8.95;2.63;;;12.60;59.20;;;;;;4861844;29;20045;-74
2022/02/21 05:05:30;;;;;;;11.63;2.75;;;12.60;59.10;;;;;;4862363;29;20209;-74
2022/02/21 05:07:56;;;;;;;15.73;3.45;;;12.60;59.10;;;;;;4861783;29;20113;-75
2022/02/21 05:10:22;;;;;;;11.95;3.00;;;12.50;58.90;;;;;;4862299;29;20053;-75
2022/02/21 05:12:48;;;;;;;11.02;3.03;;;12.50;59.10;;;;;;4861987;29;20065;-76
2022/02/21 05:15:14;;;;;;;15.07;3.80;;;12.50;59.00;;;;;;4862391;29;20084;-75
2022/02/21 05:17:40;;;;;;;11.15;3.35;;;12.50;59.00;;;;;;4862809;29;20385;-76
2022/02/21 05:20:08;;;;;;;14.25;2.80;;;12.50;59.70;;;;;;4861433;29;20046;-75
2022/02/21 05:22:34;;;;;;;10.10;2.80;;;12.50;59.00;;;;;;4860840;29;20050;-75
2022/02/21 05:25:00;;;;;;;10.00;2.95;;;12.50;59.10;;;;;;4861821;29;20064;-75
2022/02/21 05:27:26;;;;;;;9.85;2.80;;;12.50;59.00;;;;;;4862156;29;20122;-76
2022/02/21 05:29:51;;;;;;;13.95;3.88;;;12.50;59.00;;;;;;4861933;29;20063;-75
2022/02/21 05:32:17;;;;;;;11.32;2.70;;;12.40;58.90;;;;;;4860791;29;20191;-74
2022/02/21 05:34:43;;;;;;;13.75;3.35;;;12.50;59.00;;;;;;4861323;29;20053;-76
2022/02/21 05:37:09;;;;;;;19.42;3.80;;;12.60;59.20;;;;;;4861892;29;20084;-76
2022/02/21 05:39:35;;;;;;;12.27;3.42;;;12.70;58.50;;;;;;4848650;29;20444;-82
2022/02/21 05:42:01;;;;;;;14.40;3.13;;;12.80;57.30;;;;;;4861107;29;20128;-83
2022/02/21 05:44:32;;;;;;;12.77;3.28;;;12.80;55.80;;;;;;4860981;29;20522;-77
2022/02/21 05:46:58;;;;;;;21.80;4.57;;;12.90;53.60;;;;;;4860357;29;20041;-72
2022/02/21 05:49:23;;;;;;;22.77;4.15;;;12.80;53.90;;;;;;4861695;29;20092;-71
2022/02/21 05:51:52;;;;;;;17.73;4.40;;;12.70;54.10;;;;;;4864471;29;20060;-72
2022/02/21 05:54:18;;;;;;;13.48;2.97;;;12.70;54.30;;;;;;4863862;29;20092;-75
2022/02/21 05:56:44;;;;;;;9.45;3.08;;;12.80;54.20;;;;;;4864942;29;20531;-71
2022/02/21 05:59:10;;;;;;;15.35;3.35;;;13.00;54.30;;;;;;4864225;29;20448;-73
2022/02/21 06:01:35;;;;;;;19.13;4.30;;;13.20;54.60;;;;;;4864430;29;20130;-71
2022/02/21 06:04:01;;;;;;;13.38;3.25;;;13.00;55.80;;;;;;4826142;29;1121626;-71
2022/02/21 06:06:27;;;;;;;20.98;3.28;;;13.00;57.00;;;;;;4864975;29;20088;-73
2022/02/21 06:08:53;;;;;;;12.45;2.65;;;13.40;57.60;;;;;;4864799;29;20072;-76
2022/02/21 06:11:18;;;;;;;17.08;3.30;;;13.70;57.60;;;;;;4862579;29;20079;-72
2022/02/21 06:13:44;;;;;;;14.63;3.22;;;14.00;57.70;;;;;;4865335;29;20060;-70
2022/02/21 06:16:10;;;;;;;24.35;3.97;;;14.30;57.50;;;;;;4854153;29;20140;-73
2022/02/21 06:18:35;;;;;;;16.17;3.50;;;14.60;57.30;;;;;;4866332;29;20053;-73
2022/02/21 06:21:01;;;;;;;19.00;3.63;;;14.80;57.70;;;;;;4865400;29;20053;-75
2022/02/21 06:23:27;;;;;;;12.10;3.30;;;14.90;57.80;;;;;;4865289;29;20054;-73
2022/02/21 06:25:52;;;;;;;17.48;3.58;;;15.10;57.90;;;;;;4864761;29;20059;-73
2022/02/21 06:28:18;;;;;;;13.45;3.38;;;15.20;58.00;;;;;;4865811;29;20049;-72
2022/02/21 06:30:44;;;;;;;18.45;3.35;;;15.30;58.10;;;;;;4865543;29;20460;-73
2022/02/21 06:33:09;;;;;;;11.85;2.67;;;15.30;57.90;;;;;;4865489;29;20049;-72
2022/02/21 06:35:35;;;;;;;18.73;3.60;;;15.40;57.90;;;;;;4865492;29;20367;-72
2022/02/21 06:38:04;;;;;;;17.48;3.70;;;15.40;58.00;;;;;;4865454;29;20088;-71
2022/02/21 06:40:30;;;;;;;17.00;2.75;;;15.50;58.20;;;;;;4865395;29;20053;-72
2022/02/21 06:42:56;;;;;;;12.55;2.63;;;15.50;58.20;;;;;;4864746;29;20049;-71
2022/02/21 06:45:23;;;;;;;15.77;3.25;;;15.60;58.10;;;;;;4864160;29;20053;-72
2022/02/21 06:47:49;;;;;;;13.93;3.80;;;15.70;57.90;;;;;;4864519;29;20045;-72
2022/02/21 06:50:16;;;;;;;18.67;4.32;;;15.80;58.00;;;;;;4863912;29;20110;-73
2022/02/21 06:52:42;;;;;;;13.63;2.78;;;15.80;57.90;;;;;;4863576;29;20057;-72
2022/02/21 06:55:10;;;;;;;9.98;2.67;;;15.90;57.60;;;;;;4865045;29;20060;-72
2022/02/21 06:57:36;;;;;;;18.50;3.22;;;15.90;57.90;;;;;;4864301;29;20458;-70
2022/02/21 07:00:03;;;;;;;13.98;3.10;;;15.90;57.80;;;;;;4863163;29;20046;-72
2022/02/21 07:02:29;;;;;;;12.50;3.00;;;16.00;57.90;;;;;;4856329;29;20103;-74
2022/02/21 07:04:55;;;;;;;17.13;2.65;;;16.00;58.00;;;;;;4859795;29;20093;-72
2022/02/21 07:07:20;;;;;;;18.23;3.80;;;16.10;57.90;;;;;;4851428;29;20120;-71
2022/02/21 07:09:46;;;;;;;11.27;2.97;;;16.10;57.90;;;;;;4863600;29;20057;-72
2022/02/21 07:12:12;;;;;;;16.08;3.58;;;16.20;57.80;;;;;;4864465;29;20413;-72
2022/02/21 07:14:38;;;;;;;12.52;3.30;;;16.20;57.70;;;;;;4864097;29;20061;-71
2022/02/21 07:17:03;;;;;;;18.80;3.22;;;16.20;57.50;;;;;;4864332;29;20053;-72
2022/02/21 07:19:29;;;;;;;12.32;3.75;;;16.30;57.40;;;;;;4864922;29;20049;-72
2022/02/21 07:21:55;;;;;;;14.23;3.25;;;16.30;57.10;;;;;;4863815;29;20056;-71
2022/02/21 07:24:21;;;;;;;16.25;3.42;;;16.30;56.80;;;;;;4864069;29;20063;-72
2022/02/21 07:26:46;;;;;;;12.50;3.20;;;16.30;56.60;;;;;;4864861;29;20053;-71
2022/02/21 07:29:12;;;;;;;15.05;3.50;;;16.20;56.40;;;;;;4865001;29;20057;-74
2022/02/21 07:31:38;;;;;;;12.27;2.85;;;16.20;56.30;;;;;;4864884;29;20070;-72
2022/02/21 07:34:04;;;;;;;12.65;2.78;;;16.10;56.20;;;;;;4864513;29;20057;-71
2022/02/21 07:36:31;;;;;;;13.18;2.72;;;16.10;56.30;;;;;;4864490;29;20090;-73
2022/02/21 07:38:57;;;;;;;15.73;3.65;;;16.00;56.10;;;;;;4864572;29;20376;-73
2022/02/21 07:41:23;;;;;;;16.75;3.42;;;15.90;56.00;;;;;;4864455;29;20065;-72
2022/02/21 07:43:48;;;;;;;8.80;2.83;;;15.90;56.00;;;;;;4863951;29;20087;-72
2022/02/21 07:46:14;;;;;;;15.30;2.92;;;15.80;56.10;;;;;;4864631;29;20368;-74
2022/02/21 07:48:40;;;;;;;12.95;2.75;;;15.80;56.20;;;;;;4864274;29;20054;-71
2022/02/21 07:51:06;;;;;;;11.73;2.70;;;15.70;56.10;;;;;;4864101;29;20056;-71
2022/02/21 07:53:32;;;;;;;13.25;3.22;;;15.70;56.10;;;;;;4864193;29;20065;-72
2022/02/21 07:55:58;;;;;;;11.75;2.97;;;15.70;56.10;;;;;;4864377;29;20064;-72
2022/02/21 07:58:24;;;;;;;10.15;2.40;;;15.60;56.00;;;;;;4864224;29;20378;-72
2022/02/21 08:00:50;;;;;;;10.63;2.80;;;15.60;56.10;;;;;;4863414;29;20057;-71
2022/02/21 08:03:16;;;;;;;10.27;2.70;;;15.60;56.30;;;;;;4863248;29;20445;-72
2022/02/21 08:05:42;;;;;;;9.48;2.60;;;15.50;56.50;;;;;;4863808;29;20054;-70
2022/02/21 08:08:08;;;;;;;10.43;2.67;;;15.50;56.30;;;;;;4864202;29;20463;-72
2022/02/21 08:10:35;;;;;;;8.55;2.83;;;15.40;55.90;;;;;;4864072;29;20046;-71
2022/02/21 08:13:01;;;;;;;7.95;2.22;;;15.40;55.70;;;;;;4861850;29;20049;-72
2022/02/21 08:15:27;;;;;;;10.10;2.60;;;15.50;55.70;;;;;;4863490;29;20049;-71
2022/02/21 08:17:53;;;;;;;8.85;2.53;;;15.40;55.50;;;;;;4863263;29;20064;-71
2022/02/21 08:20:22;;;;;;;9.02;2.55;;;15.40;55.40;;;;;;4863196;29;20045;-70
2022/02/21 08:22:48;;;;;;;9.95;2.05;;;15.40;55.50;;;;;;4863635;29;20041;-71
2022/02/21 08:25:15;;;;;;;10.55;2.70;;;15.40;55.30;;;;;;4863629;29;20049;-71
2022/02/21 08:27:42;;;;;;;5.85;1.67;;;15.40;55.20;;;;;;4863026;29;20053;-72
2022/02/21 08:30:12;;;;;;;7.78;1.90;;;15.50;55.30;;;;;;4863484;29;20053;-71
2022/02/21 08:32:39;;;;;;;6.97;1.77;;;15.50;55.10;;;;;;4863441;29;20049;-71
2022/02/21 08:35:06;;;;;;;8.13;2.22;;;15.40;55.20;;;;;;4863636;29;20054;-74
2022/02/21 08:37:32;;;;;;;5.35;1.40;;;15.50;55.30;;;;;;4858462;29;20379;-72
2022/02/21 08:39:57;;;;;;;6.32;1.77;;;15.50;55.40;;;;;;4847696;29;20061;-72
2022/02/21 08:42:23;;;;;;;8.05;2.20;;;15.50;55.60;;;;;;4863293;29;20062;-71
2022/02/21 08:44:49;;;;;;;9.18;2.13;;;15.60;56.10;;;;;;4862621;29;20061;-72
2022/02/21 08:47:16;;;;;;;6.25;1.60;;;15.60;56.50;;;;;;4863653;29;20371;-71
2022/02/21 08:49:43;;;;;;;7.28;1.90;;;15.70;56.60;;;;;;4863394;29;20068;-72
2022/02/21 08:52:10;;;;;;;7.93;1.55;;;15.60;53.90;;;;;;4861937;29;20053;-72
2022/02/21 08:54:36;;;;;;;6.05;1.58;;;15.60;56.50;;;;;;4867086;29;20064;-72
2022/02/21 08:57:05;;;;;;;5.80;1.33;;;15.60;56.90;;;;;;4862707;29;20045;-77
2022/02/21 08:59:32;;;;;;;7.43;1.95;;;15.70;57.10;;;;;;4846193;29;20049;-71
2022/02/21 09:01:58;;;;;;;7.72;1.42;;;15.70;57.00;;;;;;4861873;29;20049;-71
2022/02/21 09:04:24;;;;;;;4.93;1.20;;;15.80;56.50;;;;;;4861153;29;20061;-70
2022/02/21 09:06:50;;;;;;;5.30;1.15;;;15.90;57.10;;;;;;4861691;29;20072;-71
2022/02/21 09:09:16;;;;;;;9.93;1.73;;;15.90;57.20;;;;;;4862886;29;20097;-71
2022/02/21 09:11:41;;;;;;;10.23;1.90;;;16.00;57.20;;;;;;4862699;29;20420;-70
2022/02/21 09:14:07;;;;;;;10.02;1.60;;;16.10;57.40;;;;;;4861786;29;20140;-71
2022/02/21 09:16:33;;;;;;;7.88;1.48;;;16.10;57.40;;;;;;4860239;29;20054;-71
2022/02/21 09:18:59;;;;;;;4.63;0.90;;;16.20;57.60;;;;;;4861879;29;20050;-72
2022/02/21 09:21:25;;;;;;;7.93;1.42;;;16.20;57.50;;;;;;4862733;29;20151;-73
2022/02/21 09:23:51;;;;;;;5.78;1.42;;;16.20;57.40;;;;;;4862579;29;20057;-70
2022/02/21 09:26:17;;;;;;;6.40;1.83;;;16.20;57.40;;;;;;4862693;29;20137;-72
2022/02/21 09:28:43;;;;;;;8.85;1.75;;;16.30;57.30;;;;;;4862350;29;20483;-74
2022/02/21 09:31:09;;;;;;;13.32;1.90;;;16.40;57.30;;;;;;4862867;29;20063;-73
2022/02/21 09:33:34;;;;;;;10.93;1.88;;;16.40;57.40;;;;;;4862668;29;20057;-73
2022/02/21 09:36:02;;;;;;;11.52;1.70;;;16.40;57.60;;;;;;4862462;29;20085;-72
2022/02/21 09:38:28;;;;;;;7.00;1.80;;;16.40;57.70;;;;;;4862204;29;20057;-72
2022/02/21 09:40:56;;;;;;;10.25;2.17;;;16.50;58.00;;;;;;4862136;29;20370;-73
2022/02/21 09:43:26;;;;;;;10.45;2.20;;;16.50;58.00;;;;;;4862689;29;20064;-72
2022/02/21 09:45:59;;;;;;;16.67;2.38;;;16.50;58.10;;;;;;4861730;29;20125;-72
2022/02/21 09:48:27;;;;;;;11.63;2.57;;;16.60;58.10;;;;;;4862354;29;20470;-72
2022/02/21 09:50:58;;;;;;;8.88;1.88;;;16.60;58.00;;;;;;4854920;29;20049;-72
2022/02/21 09:53:29;;;;;;;7.30;1.88;;;16.70;57.90;;;;;;4845223;29;20060;-74
2022/02/21 09:55:55;;;;;;;8.32;2.38;;;16.70;57.80;;;;;;4860781;29;20063;-73
2022/02/21 09:58:21;;;;;;;11.18;2.30;;;16.70;57.90;;;;;;4861925;29;20094;-72
2022/02/21 10:00:47;;;;;;;11.30;2.53;;;16.80;57.70;;;;;;4862378;29;20053;-75
2022/02/21 10:03:18;;;;;;;10.75;2.97;;;16.80;57.30;;;;;;4862103;29;20375;-74
2022/02/21 10:05:48;;;;;;;21.25;3.33;;;16.80;56.90;;;;;;4861832;29;20128;-74
2022/02/21 10:08:15;;;;;;;11.38;3.33;;;16.80;57.40;;;;;;4861207;29;20069;-72
2022/02/21 10:10:41;;;;;;;14.30;3.22;;;16.70;57.10;;;;;;4861904;29;20057;-71
2022/02/21 10:13:07;;;;;;;18.35;3.63;;;16.80;57.40;;;;;;4862274;29;20053;-72
2022/02/21 10:15:34;;;;;;;14.95;3.22;;;16.80;57.60;;;;;;4862281;29;20041;-73
2022/02/21 10:18:19;;;;;;;18.02;3.85;;;16.80;57.80;;;;;;4845923;29;20049;-73
2022/02/21 10:20:55;;;;;;;15.90;4.07;;;16.90;57.80;;;;;;4861962;29;20050;-73
2022/02/21 10:23:23;;;;;;;14.65;3.63;;;16.90;58.10;;;;;;4862119;29;20050;-76
2022/02/21 10:26:05;;;;;;;18.73;3.90;;;16.90;58.40;;;;;;4866815;29;20049;-76
2022/02/21 10:28:42;;;;;;;21.80;4.13;;;17.00;58.80;;;;;;4865308;29;20544;-73
2022/02/21 10:31:17;;;;;;;25.67;5.05;;;17.00;58.90;;;;;;4861335;29;20061;-74
2022/02/21 10:34:03;;;;;;;15.10;4.20;;;17.00;59.00;;;;;;4862362;29;20053;-74
2022/02/21 10:36:44;;;;;;;19.50;3.78;;;17.10;59.50;;;;;;4868267;29;20053;-76
2022/02/21 10:39:19;;;;;;;24.30;3.95;;;17.10;59.50;;;;;;4867323;29;20114;-76
2022/02/21 10:41:57;;;;;;;20.02;3.97;;;17.10;59.50;;;;;;4865883;29;20046;-75
2022/02/21 10:44:26;;;;;;;15.85;4.45;;;17.20;59.50;;;;;;4854026;29;20463;-74
2022/02/21 10:47:16;;;;;;;15.82;3.47;;;17.20;59.50;;;;;;4847143;29;20136;-75
2022/02/21 10:49:55;;;;;;;19.13;4.05;;;17.20;59.50;;;;;;4862888;29;20041;-74
2022/02/21 10:52:36;;;;;;;13.40;3.15;;;17.20;59.30;;;;;;4881007;29;20127;-76
2022/02/21 10:55:05;;;;;;;15.68;3.90;;;17.20;59.30;;;;;;4883788;29;20048;-76
2022/02/21 10:57:47;;;;;;;16.50;3.17;;;17.30;59.10;;;;;;4883824;29;20033;-75
2022/02/21 11:00:14;;;;;;;19.08;3.45;;;17.30;59.20;;;;;;4876854;29;20045;-75
2022/02/21 11:02:41;;;;;;;21.02;4.03;;;17.30;59.10;;;;;;4876241;29;20387;-75
2022/02/21 11:05:09;;;;;;;14.43;2.97;;;17.30;59.10;;;;;;4883094;29;20072;-75
2022/02/21 11:07:41;;;;;;;13.95;3.25;;;17.30;59.30;;;;;;4883592;29;20041;-76
2022/02/21 11:10:08;;;;;;;12.50;2.92;;;17.30;59.30;;;;;;4883772;29;20067;-75
2022/02/21 11:12:37;;;;;;;13.65;3.50;;;17.30;59.30;;;;;;4869247;29;20126;-80
2022/02/21 11:15:05;;;;;;;13.18;2.92;;;17.30;59.30;;;;;;4867025;29;20045;-80
2022/02/21 11:17:31;;;;;;;10.63;3.15;;;17.30;59.30;;;;;;4864022;29;20089;-76
2022/02/21 11:19:58;;;;;;;13.15;3.05;;;17.30;59.80;;;;;;4862200;29;20421;-77
2022/02/21 11:22:25;;;;;;;13.18;3.33;;;17.30;59.40;;;;;;4864552;29;20128;-75
2022/02/21 11:24:57;;;;;;;13.25;3.72;;;17.30;59.50;;;;;;4862677;29;20053;-75
2022/02/21 11:27:44;;;;;;;11.15;2.88;;;17.40;59.50;;;;;;4864942;29;20054;-75
2022/02/21 11:30:19;;;;;;;15.18;3.65;;;17.30;59.50;;;;;;4866851;29;20053;-75
2022/02/21 11:33:14;;;;;;;14.30;2.90;;;17.30;59.50;;;;;;4877293;29;20078;-75
2022/02/21 11:36:05;;;;;;;15.13;3.90;;;17.30;59.70;;;;;;4838620;29;20353;-75
2022/02/21 11:38:33;;;;;;;15.60;3.17;;;17.30;59.80;;;;;;4868265;29;20057;-76
2022/02/21 11:41:07;;;;;;;12.13;3.72;;;17.30;59.80;;;;;;4867161;29;20528;-76
2022/02/21 11:43:46;;;;;;;13.00;3.50;;;17.30;59.90;;;;;;4870711;29;20096;-88
2022/02/21 11:46:28;;;;;;;16.17;3.00;;;17.30;60.00;;;;;;4865804;29;20045;-74
2022/02/21 11:49:01;;;;;;;12.18;3.45;;;17.30;59.80;;;;;;4865780;29;20056;-74
2022/02/21 11:51:40;;;;;;;16.05;3.80;;;17.30;59.90;;;;;;4864446;29;20056;-74
2022/02/21 11:54:09;;;;;;;15.20;3.42;;;17.30;60.60;;;;;;4864453;29;20049;-75
2022/02/21 11:56:55;;;;;;;20.67;4.65;;;17.40;60.10;;;;;;4861932;29;20216;-70
2022/02/21 11:59:21;;;;;;;18.60;3.10;;;17.30;60.20;;;;;;4862863;29;20487;-83
2022/02/21 12:01:59;;;;;;;12.93;2.92;;;17.30;60.00;;;;;;4864110;29;20064;-72
2022/02/21 12:04:26;;;;;;;14.57;3.13;;;17.30;60.00;;;;;;4861964;29;20130;-79
2022/02/21 12:07:22;;;;;;;15.32;3.45;;;17.30;60.10;;;;;;4862595;29;20049;-71
2022/02/21 12:10:21;;;;;;;19.05;3.72;;;17.30;59.80;;;;;;4859246;29;20452;-73
2022/02/21 12:13:00;;;;;;;13.35;3.70;;;17.30;60.30;;;;;;4863852;29;20064;-81
2022/02/21 12:15:30;;;;;;;14.80;3.35;;;17.20;60.90;;;;;;4863799;29;20044;-78
2022/02/21 12:18:08;;;;;;;15.05;3.50;;;17.20;60.40;;;;;;4863695;29;20102;-78
2022/02/21 12:20:41;;;;;;;21.20;3.33;;;17.20;60.10;;;;;;4863630;29;20049;-76
2022/02/21 12:23:16;;;;;;;13.48;3.60;;;17.10;60.00;;;;;;4863491;29;20042;-76
2022/02/21 12:26:00;;;;;;;18.25;4.22;;;17.10;60.80;;;;;;4874820;29;20068;-76
2022/02/21 12:28:26;;;;;;;;;;;17.10;63.00;;;;;;4862786;29;20110;-76
2022/02/21 12:30:54;;;;;;;14.48;3.50;;;17.00;62.10;;;;;;4863436;29;19931;-80
2022/02/21 12:33:32;;;;;;;16.00;3.72;;;17.00;61.40;;;;;;4863659;29;20483;-79
2022/02/21 12:36:00;;;;;;;17.40;4.13;;;17.10;60.90;;;;;;4862460;29;20121;-78
2022/02/21 12:38:29;;;;;;;15.02;3.30;;;17.00;62.30;;;;;;4863182;29;20072;-76
2022/02/21 12:41:07;;;;;;;10.27;2.97;;;17.10;61.30;;;;;;4862123;29;20057;-80